sensor_id;sensor_type;location;lat;lon;timestamp;P1;durP1;ratioP1;P2;durP2;ratioP2
69170;SDS011;56279;47.902;12.308;2022-09-02T00:01:56;8.10;;;3.95;;
69170;SDS011;56279;47.902;12.308;2022-09-02T00:04:02;6.47;;;2.90;;
69170;SDS011;56279;47.902;12.308;2022-09-02T00:06:06;4.93;;;3.03;;
69170;SDS011;56279;47.902;12.308;2022-09-02T00:08:08;5.25;;;3.20;;
69170;SDS011;56279;47.902;12.308;2022-09-02T00:10:10;6.07;;;2.65;;
69170;SDS011;56279;47.902;12.308;2022-09-02T00:12:11;5.13;;;2.90;;
69170;SDS011;56279;47.902;12.308;2022-09-02T00:14:14;6.83;;;3.13;;
69170;SDS011;56279;47.902;12.308;2022-09-02T00:16:18;4.70;;;3.08;;
69170;SDS011;56279;47.902;12.308;2022-09-02T00:18:19;5.43;;;2.85;;
69170;SDS011;56279;47.902;12.308;2022-09-02T00:20:21;4.88;;;2.60;;
69170;SDS011;56279;47.902;12.308;2022-09-02T00:22:22;4.97;;;3.00;;
69170;SDS011;56279;47.902;12.308;2022-09-02T00:24:23;4.33;;;2.63;;
69170;SDS011;56279;47.902;12.308;2022-09-02T00:26:26;4.32;;;2.55;;
69170;SDS011;56279;47.902;12.308;2022-09-02T00:28:28;5.97;;;3.15;;
69170;SDS011;56279;47.902;12.308;2022-09-02T00:30:29;5.53;;;3.10;;
69170;SDS011;56279;47.902;12.308;2022-09-02T00:32:30;5.30;;;2.72;;
69170;SDS011;56279;47.902;12.308;2022-09-02T00:34:32;4.40;;;2.80;;
69170;SDS011;56279;47.902;12.308;2022-09-02T00:36:33;4.75;;;3.08;;
69170;SDS011;56279;47.902;12.308;2022-09-02T00:38:35;6.60;;;3.10;;
69170;SDS011;56279;47.902;12.308;2022-09-02T00:40:38;6.13;;;2.97;;
69170;SDS011;56279;47.902;12.308;2022-09-02T00:42:43;4.50;;;2.97;;
69170;SDS011;56279;47.902;12.308;2022-09-02T00:44:44;7.40;;;3.07;;
69170;SDS011;56279;47.902;12.308;2022-09-02T00:46:46;6.10;;;2.97;;
69170;SDS011;56279;47.902;12.308;2022-09-02T00:51:10;5.18;;;2.75;;
69170;SDS011;56279;47.902;12.308;2022-09-02T00:53:12;10.10;;;3.00;;
69170;SDS011;56279;47.902;12.308;2022-09-02T00:55:21;7.00;;;3.27;;
69170;SDS011;56279;47.902;12.308;2022-09-02T00:57:31;7.25;;;3.05;;
69170;SDS011;56279;47.902;12.308;2022-09-02T00:59:43;6.32;;;3.35;;
69170;SDS011;56279;47.902;12.308;2022-09-02T01:01:51;8.90;;;3.10;;
69170;SDS011;56279;47.902;12.308;2022-09-02T01:03:52;4.35;;;2.92;;
69170;SDS011;56279;47.902;12.308;2022-09-02T01:05:54;6.47;;;3.20;;
69170;SDS011;56279;47.902;12.308;2022-09-02T01:07:57;5.40;;;3.20;;
69170;SDS011;56279;47.902;12.308;2022-09-02T01:10:02;5.68;;;3.33;;
69170;SDS011;56279;47.902;12.308;2022-09-02T01:12:05;6.28;;;3.10;;
69170;SDS011;56279;47.902;12.308;2022-09-02T01:14:08;5.35;;;3.08;;
69170;SDS011;56279;47.902;12.308;2022-09-02T01:16:21;6.90;;;3.50;;
69170;SDS011;56279;47.902;12.308;2022-09-02T01:18:28;5.35;;;3.28;;
69170;SDS011;56279;47.902;12.308;2022-09-02T01:20:30;6.00;;;3.55;;
69170;SDS011;56279;47.902;12.308;2022-09-02T01:22:32;6.40;;;3.78;;
69170;SDS011;56279;47.902;12.308;2022-09-02T01:24:34;6.35;;;3.33;;
69170;SDS011;56279;47.902;12.308;2022-09-02T01:26:35;5.93;;;3.20;;
69170;SDS011;56279;47.902;12.308;2022-09-02T01:28:36;5.97;;;3.30;;
69170;SDS011;56279;47.902;12.308;2022-09-02T01:30:39;5.82;;;3.30;;
69170;SDS011;56279;47.902;12.308;2022-09-02T01:32:42;5.45;;;3.10;;
69170;SDS011;56279;47.902;12.308;2022-09-02T01:34:44;6.40;;;3.40;;
69170;SDS011;56279;47.902;12.308;2022-09-02T01:36:45;6.60;;;3.17;;
69170;SDS011;56279;47.902;12.308;2022-09-02T01:38:47;5.38;;;2.85;;
69170;SDS011;56279;47.902;12.308;2022-09-02T01:40:48;5.88;;;3.08;;
69170;SDS011;56279;47.902;12.308;2022-09-02T01:42:55;4.70;;;2.97;;
69170;SDS011;56279;47.902;12.308;2022-09-02T01:45:03;6.72;;;3.40;;
69170;SDS011;56279;47.902;12.308;2022-09-02T01:47:05;6.90;;;3.50;;
69170;SDS011;56279;47.902;12.308;2022-09-02T01:49:07;5.05;;;3.00;;
69170;SDS011;56279;47.902;12.308;2022-09-02T01:51:09;5.30;;;3.03;;
69170;SDS011;56279;47.902;12.308;2022-09-02T01:53:18;7.88;;;3.13;;
69170;SDS011;56279;47.902;12.308;2022-09-02T01:55:19;4.82;;;3.28;;
69170;SDS011;56279;47.902;12.308;2022-09-02T01:57:21;5.77;;;3.07;;
69170;SDS011;56279;47.902;12.308;2022-09-02T01:59:25;5.30;;;3.22;;
69170;SDS011;56279;47.902;12.308;2022-09-02T02:01:27;5.70;;;3.38;;
69170;SDS011;56279;47.902;12.308;2022-09-02T02:03:29;5.00;;;3.10;;
69170;SDS011;56279;47.902;12.308;2022-09-02T02:05:32;7.35;;;3.17;;
69170;SDS011;56279;47.902;12.308;2022-09-02T02:07:35;5.57;;;3.20;;
69170;SDS011;56279;47.902;12.308;2022-09-02T02:09:37;5.95;;;3.50;;
69170;SDS011;56279;47.902;12.308;2022-09-02T02:11:39;5.65;;;3.17;;
69170;SDS011;56279;47.902;12.308;2022-09-02T02:13:41;6.03;;;3.17;;
69170;SDS011;56279;47.902;12.308;2022-09-02T02:15:42;5.60;;;3.28;;
69170;SDS011;56279;47.902;12.308;2022-09-02T02:17:45;6.10;;;3.20;;
69170;SDS011;56279;47.902;12.308;2022-09-02T02:19:46;6.45;;;3.40;;
69170;SDS011;56279;47.902;12.308;2022-09-02T02:21:48;7.15;;;3.75;;
69170;SDS011;56279;47.902;12.308;2022-09-02T02:23:50;5.38;;;3.50;;
69170;SDS011;56279;47.902;12.308;2022-09-02T02:25:51;6.15;;;3.38;;
69170;SDS011;56279;47.902;12.308;2022-09-02T02:27:53;5.73;;;3.23;;
69170;SDS011;56279;47.902;12.308;2022-09-02T02:29:55;5.18;;;3.10;;
69170;SDS011;56279;47.902;12.308;2022-09-02T02:31:57;9.50;;;3.90;;
69170;SDS011;56279;47.902;12.308;2022-09-02T02:33:58;5.63;;;3.42;;
69170;SDS011;56279;47.902;12.308;2022-09-02T02:36:00;6.03;;;3.55;;
69170;SDS011;56279;47.902;12.308;2022-09-02T02:38:04;6.40;;;3.60;;
69170;SDS011;56279;47.902;12.308;2022-09-02T02:40:05;7.55;;;3.72;;
69170;SDS011;56279;47.902;12.308;2022-09-02T02:42:07;5.10;;;3.10;;
69170;SDS011;56279;47.902;12.308;2022-09-02T02:44:09;6.47;;;3.65;;
69170;SDS011;56279;47.902;12.308;2022-09-02T02:46:12;7.80;;;3.90;;
69170;SDS011;56279;47.902;12.308;2022-09-02T02:48:15;5.00;;;3.30;;
69170;SDS011;56279;47.902;12.308;2022-09-02T02:50:18;5.50;;;3.40;;
69170;SDS011;56279;47.902;12.308;2022-09-02T02:52:21;5.28;;;3.30;;
69170;SDS011;56279;47.902;12.308;2022-09-02T02:54:23;6.40;;;3.33;;
69170;SDS011;56279;47.902;12.308;2022-09-02T02:56:24;5.35;;;3.45;;
69170;SDS011;56279;47.902;12.308;2022-09-02T02:58:26;6.20;;;3.70;;
69170;SDS011;56279;47.902;12.308;2022-09-02T03:00:29;5.80;;;3.30;;
69170;SDS011;56279;47.902;12.308;2022-09-02T03:02:31;6.00;;;3.70;;
69170;SDS011;56279;47.902;12.308;2022-09-02T03:04:34;6.97;;;3.47;;
69170;SDS011;56279;47.902;12.308;2022-09-02T03:06:36;6.13;;;4.00;;
69170;SDS011;56279;47.902;12.308;2022-09-02T03:08:37;7.80;;;3.23;;
69170;SDS011;56279;47.902;12.308;2022-09-02T03:10:41;7.72;;;3.40;;
69170;SDS011;56279;47.902;12.308;2022-09-02T03:12:42;7.20;;;3.88;;
69170;SDS011;56279;47.902;12.308;2022-09-02T03:14:48;7.20;;;3.75;;
69170;SDS011;56279;47.902;12.308;2022-09-02T03:16:52;7.93;;;3.88;;
69170;SDS011;56279;47.902;12.308;2022-09-02T03:18:53;5.37;;;3.30;;
69170;SDS011;56279;47.902;12.308;2022-09-02T03:20:55;6.22;;;3.67;;
69170;SDS011;56279;47.902;12.308;2022-09-02T03:22:57;5.07;;;3.45;;
69170;SDS011;56279;47.902;12.308;2022-09-02T03:24:59;5.85;;;3.50;;
69170;SDS011;56279;47.902;12.308;2022-09-02T03:27:01;5.80;;;3.70;;
69170;SDS011;56279;47.902;12.308;2022-09-02T03:29:03;5.00;;;3.23;;
69170;SDS011;56279;47.902;12.308;2022-09-02T03:31:05;6.35;;;3.63;;
69170;SDS011;56279;47.902;12.308;2022-09-02T03:33:07;6.40;;;3.95;;
69170;SDS011;56279;47.902;12.308;2022-09-02T03:35:13;7.13;;;4.20;;
69170;SDS011;56279;47.902;12.308;2022-09-02T03:37:17;7.68;;;4.40;;
69170;SDS011;56279;47.902;12.308;2022-09-02T03:39:18;5.43;;;3.43;;
69170;SDS011;56279;47.902;12.308;2022-09-02T03:41:22;5.50;;;3.40;;
69170;SDS011;56279;47.902;12.308;2022-09-02T03:43:23;6.18;;;3.67;;
69170;SDS011;56279;47.902;12.308;2022-09-02T03:45:24;5.53;;;3.30;;
69170;SDS011;56279;47.902;12.308;2022-09-02T03:47:26;6.70;;;3.70;;
69170;SDS011;56279;47.902;12.308;2022-09-02T03:49:32;6.20;;;4.10;;
69170;SDS011;56279;47.902;12.308;2022-09-02T03:51:38;6.05;;;3.75;;
69170;SDS011;56279;47.902;12.308;2022-09-02T03:53:40;5.80;;;3.80;;
69170;SDS011;56279;47.902;12.308;2022-09-02T03:55:42;6.03;;;3.80;;
69170;SDS011;56279;47.902;12.308;2022-09-02T03:57:47;6.55;;;3.70;;
69170;SDS011;56279;47.902;12.308;2022-09-02T03:59:48;6.43;;;3.90;;
69170;SDS011;56279;47.902;12.308;2022-09-02T04:01:50;6.43;;;4.15;;
69170;SDS011;56279;47.902;12.308;2022-09-02T04:03:51;8.80;;;4.18;;
69170;SDS011;56279;47.902;12.308;2022-09-02T04:05:54;6.82;;;3.83;;
69170;SDS011;56279;47.902;12.308;2022-09-02T04:07:58;6.05;;;4.10;;
69170;SDS011;56279;47.902;12.308;2022-09-02T04:10:00;6.03;;;3.80;;
69170;SDS011;56279;47.902;12.308;2022-09-02T04:12:04;7.90;;;4.22;;
69170;SDS011;56279;47.902;12.308;2022-09-02T04:14:07;6.78;;;3.80;;
69170;SDS011;56279;47.902;12.308;2022-09-02T04:16:10;5.68;;;3.90;;
69170;SDS011;56279;47.902;12.308;2022-09-02T04:22:43;6.20;;;3.87;;
69170;SDS011;56279;47.902;12.308;2022-09-02T04:24:45;5.78;;;3.67;;
69170;SDS011;56279;47.902;12.308;2022-09-02T04:26:46;6.07;;;4.03;;
69170;SDS011;56279;47.902;12.308;2022-09-02T04:28:50;7.00;;;4.10;;
69170;SDS011;56279;47.902;12.308;2022-09-02T04:30:54;6.10;;;4.22;;
69170;SDS011;56279;47.902;12.308;2022-09-02T04:32:56;9.03;;;4.03;;
69170;SDS011;56279;47.902;12.308;2022-09-02T04:34:57;6.78;;;3.80;;
69170;SDS011;56279;47.902;12.308;2022-09-02T04:37:00;5.65;;;4.03;;
69170;SDS011;56279;47.902;12.308;2022-09-02T04:39:01;5.50;;;3.78;;
69170;SDS011;56279;47.902;12.308;2022-09-02T04:41:07;6.03;;;3.63;;
69170;SDS011;56279;47.902;12.308;2022-09-02T04:43:16;7.27;;;3.97;;
69170;SDS011;56279;47.902;12.308;2022-09-02T04:45:18;5.97;;;3.90;;
69170;SDS011;56279;47.902;12.308;2022-09-02T04:47:19;8.90;;;4.13;;
69170;SDS011;56279;47.902;12.308;2022-09-02T04:49:21;8.65;;;4.10;;
69170;SDS011;56279;47.902;12.308;2022-09-02T04:51:26;8.90;;;4.25;;
69170;SDS011;56279;47.902;12.308;2022-09-02T04:53:31;6.33;;;3.63;;
69170;SDS011;56279;47.902;12.308;2022-09-02T04:55:33;6.15;;;3.92;;
69170;SDS011;56279;47.902;12.308;2022-09-02T04:57:35;7.70;;;4.03;;
69170;SDS011;56279;47.902;12.308;2022-09-02T04:59:38;6.82;;;4.07;;
69170;SDS011;56279;47.902;12.308;2022-09-02T05:01:44;5.70;;;3.85;;
69170;SDS011;56279;47.902;12.308;2022-09-02T05:03:50;6.27;;;3.53;;
69170;SDS011;56279;47.902;12.308;2022-09-02T05:06:04;5.82;;;3.42;;
69170;SDS011;56279;47.902;12.308;2022-09-02T05:08:10;6.35;;;4.30;;
69170;SDS011;56279;47.902;12.308;2022-09-02T05:10:13;8.52;;;4.13;;
69170;SDS011;56279;47.902;12.308;2022-09-02T05:12:16;6.85;;;3.80;;
69170;SDS011;56279;47.902;12.308;2022-09-02T05:14:24;5.43;;;3.33;;
69170;SDS011;56279;47.902;12.308;2022-09-02T05:16:27;6.15;;;3.58;;
69170;SDS011;56279;47.902;12.308;2022-09-02T05:18:31;6.85;;;4.20;;
69170;SDS011;56279;47.902;12.308;2022-09-02T05:20:33;6.15;;;4.20;;
69170;SDS011;56279;47.902;12.308;2022-09-02T05:22:36;6.28;;;3.78;;
69170;SDS011;56279;47.902;12.308;2022-09-02T05:24:48;6.13;;;3.90;;
69170;SDS011;56279;47.902;12.308;2022-09-02T05:26:49;9.63;;;3.53;;
69170;SDS011;56279;47.902;12.308;2022-09-02T05:28:51;6.03;;;3.50;;
69170;SDS011;56279;47.902;12.308;2022-09-02T05:30:53;6.45;;;3.90;;
69170;SDS011;56279;47.902;12.308;2022-09-02T05:32:54;6.32;;;3.42;;
69170;SDS011;56279;47.902;12.308;2022-09-02T05:34:56;5.93;;;4.00;;
69170;SDS011;56279;47.902;12.308;2022-09-02T05:36:58;7.57;;;3.85;;
69170;SDS011;56279;47.902;12.308;2022-09-02T05:39:02;6.43;;;4.03;;
69170;SDS011;56279;47.902;12.308;2022-09-02T05:41:07;7.07;;;3.88;;
69170;SDS011;56279;47.902;12.308;2022-09-02T05:43:11;6.30;;;4.13;;
69170;SDS011;56279;47.902;12.308;2022-09-02T05:45:12;6.20;;;4.10;;
69170;SDS011;56279;47.902;12.308;2022-09-02T05:47:15;6.10;;;3.85;;
69170;SDS011;56279;47.902;12.308;2022-09-02T05:49:17;6.25;;;4.22;;
69170;SDS011;56279;47.902;12.308;2022-09-02T05:51:41;6.45;;;4.03;;
69170;SDS011;56279;47.902;12.308;2022-09-02T05:53:47;6.55;;;3.97;;
69170;SDS011;56279;47.902;12.308;2022-09-02T05:55:48;8.33;;;4.87;;
69170;SDS011;56279;47.902;12.308;2022-09-02T05:57:50;8.05;;;4.25;;
69170;SDS011;56279;47.902;12.308;2022-09-02T05:59:51;6.35;;;3.50;;
69170;SDS011;56279;47.902;12.308;2022-09-02T06:01:58;7.15;;;3.97;;
69170;SDS011;56279;47.902;12.308;2022-09-02T06:04:02;5.85;;;3.97;;
69170;SDS011;56279;47.902;12.308;2022-09-02T06:06:05;6.97;;;3.60;;
69170;SDS011;56279;47.902;12.308;2022-09-02T06:08:09;5.32;;;3.65;;
69170;SDS011;56279;47.902;12.308;2022-09-02T06:10:11;6.30;;;3.38;;
69170;SDS011;56279;47.902;12.308;2022-09-02T06:12:13;6.35;;;3.63;;
69170;SDS011;56279;47.902;12.308;2022-09-02T06:14:20;6.72;;;4.00;;
69170;SDS011;56279;47.902;12.308;2022-09-02T06:16:25;6.20;;;3.60;;
69170;SDS011;56279;47.902;12.308;2022-09-02T06:18:27;6.38;;;3.67;;
69170;SDS011;56279;47.902;12.308;2022-09-02T06:20:30;5.70;;;3.67;;
69170;SDS011;56279;47.902;12.308;2022-09-02T06:22:33;5.40;;;3.75;;
69170;SDS011;56279;47.902;12.308;2022-09-02T06:24:34;7.70;;;4.97;;
69170;SDS011;56279;47.902;12.308;2022-09-02T06:26:41;6.43;;;4.17;;
69170;SDS011;56279;47.902;12.308;2022-09-02T06:28:44;6.40;;;4.20;;
69170;SDS011;56279;47.902;12.308;2022-09-02T06:30:46;6.95;;;3.58;;
69170;SDS011;56279;47.902;12.308;2022-09-02T06:32:51;7.20;;;3.40;;
69170;SDS011;56279;47.902;12.308;2022-09-02T06:34:54;6.32;;;3.60;;
69170;SDS011;56279;47.902;12.308;2022-09-02T06:36:56;6.33;;;3.27;;
69170;SDS011;56279;47.902;12.308;2022-09-02T06:38:59;7.30;;;3.53;;
69170;SDS011;56279;47.902;12.308;2022-09-02T06:41:01;5.32;;;3.42;;
69170;SDS011;56279;47.902;12.308;2022-09-02T06:43:10;6.05;;;3.40;;
69170;SDS011;56279;47.902;12.308;2022-09-02T06:45:25;8.73;;;4.03;;
69170;SDS011;56279;47.902;12.308;2022-09-02T06:47:29;8.67;;;3.80;;
69170;SDS011;56279;47.902;12.308;2022-09-02T06:49:32;6.97;;;3.10;;
69170;SDS011;56279;47.902;12.308;2022-09-02T06:51:35;5.22;;;3.25;;
69170;SDS011;56279;47.902;12.308;2022-09-02T06:53:38;6.95;;;3.58;;
69170;SDS011;56279;47.902;12.308;2022-09-02T06:55:42;6.57;;;4.00;;
69170;SDS011;56279;47.902;12.308;2022-09-02T06:57:45;5.67;;;3.70;;
69170;SDS011;56279;47.902;12.308;2022-09-02T06:59:48;6.13;;;3.92;;
69170;SDS011;56279;47.902;12.308;2022-09-02T07:01:52;6.00;;;3.90;;
69170;SDS011;56279;47.902;12.308;2022-09-02T07:03:57;5.80;;;3.60;;
69170;SDS011;56279;47.902;12.308;2022-09-02T07:06:16;5.60;;;3.78;;
69170;SDS011;56279;47.902;12.308;2022-09-02T07:08:21;5.30;;;3.70;;
69170;SDS011;56279;47.902;12.308;2022-09-02T07:10:24;6.65;;;3.60;;
69170;SDS011;56279;47.902;12.308;2022-09-02T07:12:28;6.32;;;3.83;;
69170;SDS011;56279;47.902;12.308;2022-09-02T07:14:39;6.03;;;3.72;;
69170;SDS011;56279;47.902;12.308;2022-09-02T07:16:43;6.32;;;3.60;;
69170;SDS011;56279;47.902;12.308;2022-09-02T07:18:48;7.50;;;3.40;;
69170;SDS011;56279;47.902;12.308;2022-09-02T07:20:49;5.35;;;3.17;;
69170;SDS011;56279;47.902;12.308;2022-09-02T07:22:52;5.50;;;3.30;;
69170;SDS011;56279;47.902;12.308;2022-09-02T07:24:57;6.22;;;3.42;;
69170;SDS011;56279;47.902;12.308;2022-09-02T07:27:00;5.60;;;3.60;;
69170;SDS011;56279;47.902;12.308;2022-09-02T07:29:03;9.57;;;3.40;;
69170;SDS011;56279;47.902;12.308;2022-09-02T07:31:08;5.22;;;3.40;;
69170;SDS011;56279;47.902;12.308;2022-09-02T07:33:11;5.50;;;3.15;;
69170;SDS011;56279;47.902;12.308;2022-09-02T07:35:14;6.68;;;3.85;;
69170;SDS011;56279;47.902;12.308;2022-09-02T07:37:18;5.25;;;3.13;;
69170;SDS011;56279;47.902;12.308;2022-09-02T07:39:19;5.07;;;3.30;;
69170;SDS011;56279;47.902;12.308;2022-09-02T07:41:22;5.30;;;3.38;;
69170;SDS011;56279;47.902;12.308;2022-09-02T07:43:25;6.93;;;4.18;;
69170;SDS011;56279;47.902;12.308;2022-09-02T07:45:28;6.00;;;3.20;;
69170;SDS011;56279;47.902;12.308;2022-09-02T07:47:31;4.68;;;3.20;;
69170;SDS011;56279;47.902;12.308;2022-09-02T07:49:33;4.00;;;2.87;;
69170;SDS011;56279;47.902;12.308;2022-09-02T07:51:35;4.95;;;3.00;;
69170;SDS011;56279;47.902;12.308;2022-09-02T07:53:40;4.50;;;2.70;;
69170;SDS011;56279;47.902;12.308;2022-09-02T07:55:41;4.63;;;2.70;;
69170;SDS011;56279;47.902;12.308;2022-09-02T07:57:44;5.35;;;2.80;;
69170;SDS011;56279;47.902;12.308;2022-09-02T07:59:45;4.87;;;2.80;;
69170;SDS011;56279;47.902;12.308;2022-09-02T08:01:49;4.78;;;2.90;;
69170;SDS011;56279;47.902;12.308;2022-09-02T08:03:52;4.50;;;2.60;;
69170;SDS011;56279;47.902;12.308;2022-09-02T08:05:58;5.85;;;2.80;;
69170;SDS011;56279;47.902;12.308;2022-09-02T08:08:00;5.53;;;3.00;;
69170;SDS011;56279;47.902;12.308;2022-09-02T08:10:03;3.20;;;2.30;;
69170;SDS011;56279;47.902;12.308;2022-09-02T08:12:07;3.80;;;2.55;;
69170;SDS011;56279;47.902;12.308;2022-09-02T08:14:09;4.35;;;2.72;;
69170;SDS011;56279;47.902;12.308;2022-09-02T08:16:12;4.68;;;2.60;;
69170;SDS011;56279;47.902;12.308;2022-09-02T08:18:13;4.57;;;2.90;;
69170;SDS011;56279;47.902;12.308;2022-09-02T08:20:15;4.17;;;2.83;;
69170;SDS011;56279;47.902;12.308;2022-09-02T08:22:17;4.28;;;2.55;;
69170;SDS011;56279;47.902;12.308;2022-09-02T08:24:18;5.75;;;2.38;;
69170;SDS011;56279;47.902;12.308;2022-09-02T08:26:20;4.20;;;2.60;;
69170;SDS011;56279;47.902;12.308;2022-09-02T08:28:21;4.53;;;2.50;;
69170;SDS011;56279;47.902;12.308;2022-09-02T08:30:23;5.10;;;2.50;;
69170;SDS011;56279;47.902;12.308;2022-09-02T08:32:24;4.20;;;2.47;;
69170;SDS011;56279;47.902;12.308;2022-09-02T08:34:25;3.53;;;2.25;;
69170;SDS011;56279;47.902;12.308;2022-09-02T08:36:27;4.68;;;2.50;;
69170;SDS011;56279;47.902;12.308;2022-09-02T08:38:28;5.00;;;2.90;;
69170;SDS011;56279;47.902;12.308;2022-09-02T08:40:30;5.57;;;2.80;;
69170;SDS011;56279;47.902;12.308;2022-09-02T08:42:37;4.15;;;2.55;;
69170;SDS011;56279;47.902;12.308;2022-09-02T08:44:43;6.15;;;2.63;;
69170;SDS011;56279;47.902;12.308;2022-09-02T08:46:45;5.53;;;2.55;;
69170;SDS011;56279;47.902;12.308;2022-09-02T08:49:01;4.03;;;2.20;;
69170;SDS011;56279;47.902;12.308;2022-09-02T08:51:06;6.37;;;2.70;;
69170;SDS011;56279;47.902;12.308;2022-09-02T08:55:32;5.03;;;2.72;;
69170;SDS011;56279;47.902;12.308;2022-09-02T08:57:39;3.72;;;2.33;;
69170;SDS011;56279;47.902;12.308;2022-09-02T08:59:42;3.67;;;2.45;;
69170;SDS011;56279;47.902;12.308;2022-09-02T09:02:05;6.17;;;2.87;;
69170;SDS011;56279;47.902;12.308;2022-09-02T09:11:25;3.67;;;2.15;;
69170;SDS011;56279;47.902;12.308;2022-09-02T09:16:03;4.22;;;2.33;;
69170;SDS011;56279;47.902;12.308;2022-09-02T09:18:08;4.28;;;2.17;;
69170;SDS011;56279;47.902;12.308;2022-09-02T09:20:17;3.38;;;2.25;;
69170;SDS011;56279;47.902;12.308;2022-09-02T09:22:25;4.43;;;2.45;;
69170;SDS011;56279;47.902;12.308;2022-09-02T09:24:38;3.43;;;2.30;;
69170;SDS011;56279;47.902;12.308;2022-09-02T09:26:41;4.35;;;2.10;;
69170;SDS011;56279;47.902;12.308;2022-09-02T09:28:45;4.45;;;2.05;;
69170;SDS011;56279;47.902;12.308;2022-09-02T09:30:48;3.45;;;2.03;;
69170;SDS011;56279;47.902;12.308;2022-09-02T09:32:51;3.78;;;2.00;;
69170;SDS011;56279;47.902;12.308;2022-09-02T09:37:04;5.65;;;2.40;;
69170;SDS011;56279;47.902;12.308;2022-09-02T09:39:19;3.90;;;2.10;;
69170;SDS011;56279;47.902;12.308;2022-09-02T09:41:24;4.65;;;2.40;;
69170;SDS011;56279;47.902;12.308;2022-09-02T09:43:28;4.47;;;2.13;;
69170;SDS011;56279;47.902;12.308;2022-09-02T09:45:32;3.00;;;2.00;;
69170;SDS011;56279;47.902;12.308;2022-09-02T09:47:41;3.65;;;1.98;;
69170;SDS011;56279;47.902;12.308;2022-09-02T09:49:47;3.72;;;2.45;;
69170;SDS011;56279;47.902;12.308;2022-09-02T09:51:52;3.45;;;2.17;;
69170;SDS011;56279;47.902;12.308;2022-09-02T09:54:13;4.10;;;2.40;;
69170;SDS011;56279;47.902;12.308;2022-09-02T09:58:18;3.75;;;2.30;;
69170;SDS011;56279;47.902;12.308;2022-09-02T10:00:24;3.75;;;2.40;;
69170;SDS011;56279;47.902;12.308;2022-09-02T10:02:29;4.57;;;2.30;;
69170;SDS011;56279;47.902;12.308;2022-09-02T10:04:30;4.50;;;2.20;;
69170;SDS011;56279;47.902;12.308;2022-09-02T10:06:37;4.50;;;2.53;;
69170;SDS011;56279;47.902;12.308;2022-09-02T10:13:20;4.45;;;2.55;;
69170;SDS011;56279;47.902;12.308;2022-09-02T10:15:46;4.85;;;2.25;;
69170;SDS011;56279;47.902;12.308;2022-09-02T10:18:03;4.73;;;2.27;;
69170;SDS011;56279;47.902;12.308;2022-09-02T10:24:51;4.30;;;2.50;;
69170;SDS011;56279;47.902;12.308;2022-09-02T10:26:59;5.10;;;2.60;;
69170;SDS011;56279;47.902;12.308;2022-09-02T10:34:01;7.85;;;2.70;;
69170;SDS011;56279;47.902;12.308;2022-09-02T10:38:45;4.00;;;2.15;;
69170;SDS011;56279;47.902;12.308;2022-09-02T10:40:49;4.03;;;2.20;;
69170;SDS011;56279;47.902;12.308;2022-09-02T10:47:16;3.28;;;2.03;;
69170;SDS011;56279;47.902;12.308;2022-09-02T10:51:54;3.63;;;2.10;;
69170;SDS011;56279;47.902;12.308;2022-09-02T10:56:54;3.42;;;2.28;;
69170;SDS011;56279;47.902;12.308;2022-09-02T10:59:07;3.60;;;2.17;;
69170;SDS011;56279;47.902;12.308;2022-09-02T11:01:17;3.13;;;1.98;;
69170;SDS011;56279;47.902;12.308;2022-09-02T11:03:40;3.00;;;1.90;;
69170;SDS011;56279;47.902;12.308;2022-09-02T11:05:50;3.50;;;1.83;;
69170;SDS011;56279;47.902;12.308;2022-09-02T11:08:05;3.40;;;1.85;;
69170;SDS011;56279;47.902;12.308;2022-09-02T11:10:12;3.28;;;1.90;;
69170;SDS011;56279;47.902;12.308;2022-09-02T11:12:26;4.15;;;2.55;;
69170;SDS011;56279;47.902;12.308;2022-09-02T11:19:16;6.65;;;1.92;;
69170;SDS011;56279;47.902;12.308;2022-09-02T11:21:33;4.63;;;1.60;;
69170;SDS011;56279;47.902;12.308;2022-09-02T11:23:51;2.88;;;1.70;;
69170;SDS011;56279;47.902;12.308;2022-09-02T11:26:09;2.93;;;1.60;;
69170;SDS011;56279;47.902;12.308;2022-09-02T11:30:55;3.28;;;1.70;;
69170;SDS011;56279;47.902;12.308;2022-09-02T11:35:16;2.72;;;1.52;;
69170;SDS011;56279;47.902;12.308;2022-09-02T11:38:09;3.10;;;1.70;;
69170;SDS011;56279;47.902;12.308;2022-09-02T11:39:56;2.92;;;1.63;;
69170;SDS011;56279;47.902;12.308;2022-09-02T11:42:25;4.82;;;1.83;;
69170;SDS011;56279;47.902;12.308;2022-09-02T11:47:03;2.25;;;1.40;;
69170;SDS011;56279;47.902;12.308;2022-09-02T11:54:11;2.60;;;1.60;;
69170;SDS011;56279;47.902;12.308;2022-09-02T11:56:17;2.25;;;1.45;;
69170;SDS011;56279;47.902;12.308;2022-09-02T11:58:32;2.92;;;1.50;;
69170;SDS011;56279;47.902;12.308;2022-09-02T12:07:46;3.30;;;1.45;;
69170;SDS011;56279;47.902;12.308;2022-09-02T12:09:52;4.78;;;1.80;;
69170;SDS011;56279;47.902;12.308;2022-09-02T12:11:55;2.10;;;1.17;;
69170;SDS011;56279;47.902;12.308;2022-09-02T12:13:56;2.83;;;1.50;;
69170;SDS011;56279;47.902;12.308;2022-09-02T12:16:33;5.32;;;2.00;;
69170;SDS011;56279;47.902;12.308;2022-09-02T12:18:27;2.97;;;1.45;;
69170;SDS011;56279;47.902;12.308;2022-09-02T12:22:38;2.97;;;1.50;;
69170;SDS011;56279;47.902;12.308;2022-09-02T12:24:51;2.72;;;1.60;;
69170;SDS011;56279;47.902;12.308;2022-09-02T12:31:52;2.78;;;1.60;;
69170;SDS011;56279;47.902;12.308;2022-09-02T12:33:48;2.77;;;1.60;;
69170;SDS011;56279;47.902;12.308;2022-09-02T12:35:52;2.78;;;1.40;;
69170;SDS011;56279;47.902;12.308;2022-09-02T12:37:55;3.13;;;1.63;;
69170;SDS011;56279;47.902;12.308;2022-09-02T12:40:18;4.25;;;1.73;;
69170;SDS011;56279;47.902;12.308;2022-09-02T12:42:28;5.30;;;1.60;;
69170;SDS011;56279;47.902;12.308;2022-09-02T12:44:36;2.17;;;1.40;;
69170;SDS011;56279;47.902;12.308;2022-09-02T12:51:03;4.25;;;1.50;;
69170;SDS011;56279;47.902;12.308;2022-09-02T12:53:10;2.38;;;1.50;;
69170;SDS011;56279;47.902;12.308;2022-09-02T12:55:28;2.80;;;1.50;;
69170;SDS011;56279;47.902;12.308;2022-09-02T12:57:37;3.10;;;1.40;;
69170;SDS011;56279;47.902;12.308;2022-09-02T12:59:40;2.38;;;1.50;;
69170;SDS011;56279;47.902;12.308;2022-09-02T13:01:45;2.75;;;1.60;;
69170;SDS011;56279;47.902;12.308;2022-09-02T13:06:22;2.30;;;1.40;;
69170;SDS011;56279;47.902;12.308;2022-09-02T13:10:55;4.70;;;1.52;;
69170;SDS011;56279;47.902;12.308;2022-09-02T13:15:22;4.25;;;1.80;;
69170;SDS011;56279;47.902;12.308;2022-09-02T13:27:29;2.13;;;1.40;;
69170;SDS011;56279;47.902;12.308;2022-09-02T13:32:14;2.65;;;1.50;;
69170;SDS011;56279;47.902;12.308;2022-09-02T13:34:21;4.63;;;1.60;;
69170;SDS011;56279;47.902;12.308;2022-09-02T13:36:31;2.83;;;1.50;;
69170;SDS011;56279;47.902;12.308;2022-09-02T13:38:36;2.33;;;1.60;;
69170;SDS011;56279;47.902;12.308;2022-09-02T13:40:38;2.53;;;1.70;;
69170;SDS011;56279;47.902;12.308;2022-09-02T13:42:45;2.72;;;1.60;;
69170;SDS011;56279;47.902;12.308;2022-09-02T13:44:47;3.72;;;2.08;;
69170;SDS011;56279;47.902;12.308;2022-09-02T13:46:51;3.53;;;1.40;;
69170;SDS011;56279;47.902;12.308;2022-09-02T13:48:54;3.22;;;1.50;;
69170;SDS011;56279;47.902;12.308;2022-09-02T13:50:56;1.93;;;1.40;;
69170;SDS011;56279;47.902;12.308;2022-09-02T13:53:02;2.65;;;1.50;;
69170;SDS011;56279;47.902;12.308;2022-09-02T13:55:07;3.53;;;1.70;;
69170;SDS011;56279;47.902;12.308;2022-09-02T13:57:12;3.63;;;1.50;;
69170;SDS011;56279;47.902;12.308;2022-09-02T14:01:40;2.70;;;1.50;;
69170;SDS011;56279;47.902;12.308;2022-09-02T14:03:45;3.00;;;1.45;;
69170;SDS011;56279;47.902;12.308;2022-09-02T14:05:53;3.40;;;1.83;;
69170;SDS011;56279;47.902;12.308;2022-09-02T14:07:57;2.47;;;1.48;;